<?xml version="1.0" encoding="UTF-8" standalone="no" ?>
<gpx xmlns="http://www.topografix.com/GPX/1/1" xmlns:xsi="http://www.w3.org/2001/XMLSchema-instance" xsi:schemaLocation="http://www.topografix.com/GPX/1/1 http://www.topografix.com/GPX/1/1/gpx.xsd" version="1.1" creator="VisuGPX - https://www.visugpx.com">
  <metadata>
    <name>roquepertusse</name>
    <desc><![CDATA[Proposée par Babette pour Gransrandonnée]]></desc>
  </metadata>
  <trk>
    <name><![CDATA[roquepertusse]]></name>
    <trkseg>
      <trkpt lat="43.53389" lon="5.27012">
        <ele>76.3</ele>
        <time>2021-03-17T12:59:24Z</time>
      </trkpt>
      <trkpt lat="43.53378" lon="5.27034">
        <ele>77.1</ele>
        <time>2021-03-17T13:01:00Z</time>
      </trkpt>
      <trkpt lat="43.53385" lon="5.27062">
        <ele>76.7</ele>
        <time>2021-03-17T13:01:25Z</time>
      </trkpt>
      <trkpt lat="43.53375" lon="5.27066">
        <ele>77.8</ele>
        <time>2021-03-17T13:03:11Z</time>
      </trkpt>
      <trkpt lat="43.53357" lon="5.2705">
        <ele>79.2</ele>
        <time>2021-03-17T13:03:39Z</time>
      </trkpt>
      <trkpt lat="43.53335" lon="5.27051">
        <ele>81.3</ele>
        <time>2021-03-17T13:04:09Z</time>
      </trkpt>
      <trkpt lat="43.53314" lon="5.27055">
        <ele>82.3</ele>
        <time>2021-03-17T13:04:31Z</time>
      </trkpt>
      <trkpt lat="43.53292" lon="5.27059">
        <ele>83.1</ele>
        <time>2021-03-17T13:04:53Z</time>
      </trkpt>
      <trkpt lat="43.5327" lon="5.2706">
        <ele>83.7</ele>
        <time>2021-03-17T13:05:15Z</time>
      </trkpt>
      <trkpt lat="43.5325" lon="5.27071">
        <ele>84.1</ele>
        <time>2021-03-17T13:05:40Z</time>
      </trkpt>
      <trkpt lat="43.53233" lon="5.27092">
        <ele>85.3</ele>
        <time>2021-03-17T13:06:02Z</time>
      </trkpt>
      <trkpt lat="43.53226" lon="5.27118">
        <ele>87.2</ele>
        <time>2021-03-17T13:06:28Z</time>
      </trkpt>
      <trkpt lat="43.53242" lon="5.27109">
        <ele>86.1</ele>
        <time>2021-03-17T13:08:56Z</time>
      </trkpt>
      <trkpt lat="43.53253" lon="5.2713">
        <ele>87.2</ele>
        <time>2021-03-17T13:09:30Z</time>
      </trkpt>
      <trkpt lat="43.53262" lon="5.27129">
        <ele>86.6</ele>
        <time>2021-03-17T13:12:25Z</time>
      </trkpt>
      <trkpt lat="43.53281" lon="5.27132">
        <ele>85.6</ele>
        <time>2021-03-17T13:13:03Z</time>
      </trkpt>
      <trkpt lat="43.53283" lon="5.27157">
        <ele>86.4</ele>
        <time>2021-03-17T13:15:30Z</time>
      </trkpt>
      <trkpt lat="43.53264" lon="5.2716">
        <ele>88.2</ele>
        <time>2021-03-17T13:19:39Z</time>
      </trkpt>
      <trkpt lat="43.53248" lon="5.27172">
        <ele>89.9</ele>
        <time>2021-03-17T13:21:25Z</time>
      </trkpt>
      <trkpt lat="43.53263" lon="5.2718">
        <ele>88.3</ele>
        <time>2021-03-17T13:22:30Z</time>
      </trkpt>
      <trkpt lat="43.53282" lon="5.27176">
        <ele>86.3</ele>
        <time>2021-03-17T13:23:26Z</time>
      </trkpt>
      <trkpt lat="43.53301" lon="5.27162">
        <ele>85</ele>
        <time>2021-03-17T13:24:04Z</time>
      </trkpt>
      <trkpt lat="43.53316" lon="5.27142">
        <ele>83.5</ele>
        <time>2021-03-17T13:24:55Z</time>
      </trkpt>
      <trkpt lat="43.53301" lon="5.27158">
        <ele>84.9</ele>
        <time>2021-03-17T13:26:23Z</time>
      </trkpt>
      <trkpt lat="43.53285" lon="5.27176">
        <ele>86.1</ele>
        <time>2021-03-17T13:27:02Z</time>
      </trkpt>
      <trkpt lat="43.53264" lon="5.27181">
        <ele>88.1</ele>
        <time>2021-03-17T13:27:28Z</time>
      </trkpt>
      <trkpt lat="43.53248" lon="5.27176">
        <ele>89.8</ele>
        <time>2021-03-17T13:28:34Z</time>
      </trkpt>
      <trkpt lat="43.53243" lon="5.27151">
        <ele>89</ele>
        <time>2021-03-17T13:29:04Z</time>
      </trkpt>
      <trkpt lat="43.53232" lon="5.27126">
        <ele>87.5</ele>
        <time>2021-03-17T13:29:42Z</time>
      </trkpt>
      <trkpt lat="43.53216" lon="5.27107">
        <ele>86.9</ele>
        <time>2021-03-17T13:30:06Z</time>
      </trkpt>
      <trkpt lat="43.53208" lon="5.27088">
        <ele>86.3</ele>
        <time>2021-03-17T13:31:08Z</time>
      </trkpt>
      <trkpt lat="43.53192" lon="5.27074">
        <ele>86.6</ele>
        <time>2021-03-17T13:31:31Z</time>
      </trkpt>
      <trkpt lat="43.53171" lon="5.27061">
        <ele>87</ele>
        <time>2021-03-17T13:31:51Z</time>
      </trkpt>
      <trkpt lat="43.53152" lon="5.27048">
        <ele>87.4</ele>
        <time>2021-03-17T13:32:10Z</time>
      </trkpt>
      <trkpt lat="43.5313" lon="5.27046">
        <ele>88.3</ele>
        <time>2021-03-17T13:32:30Z</time>
      </trkpt>
      <trkpt lat="43.53109" lon="5.27035">
        <ele>89.2</ele>
        <time>2021-03-17T13:32:49Z</time>
      </trkpt>
      <trkpt lat="43.53089" lon="5.27028">
        <ele>90.4</ele>
        <time>2021-03-17T13:33:09Z</time>
      </trkpt>
      <trkpt lat="43.53076" lon="5.27007">
        <ele>91.1</ele>
        <time>2021-03-17T13:33:31Z</time>
      </trkpt>
      <trkpt lat="43.5306" lon="5.2699">
        <ele>92.1</ele>
        <time>2021-03-17T13:33:53Z</time>
      </trkpt>
      <trkpt lat="43.53041" lon="5.26976">
        <ele>93.6</ele>
        <time>2021-03-17T13:34:21Z</time>
      </trkpt>
      <trkpt lat="43.53023" lon="5.26959">
        <ele>95.5</ele>
        <time>2021-03-17T13:34:49Z</time>
      </trkpt>
      <trkpt lat="43.53005" lon="5.26941">
        <ele>97.7</ele>
        <time>2021-03-17T13:35:13Z</time>
      </trkpt>
      <trkpt lat="43.52984" lon="5.26933">
        <ele>98.7</ele>
        <time>2021-03-17T13:35:35Z</time>
      </trkpt>
      <trkpt lat="43.52963" lon="5.26928">
        <ele>99.2</ele>
        <time>2021-03-17T13:35:57Z</time>
      </trkpt>
      <trkpt lat="43.52946" lon="5.26909">
        <ele>100.3</ele>
        <time>2021-03-17T13:36:21Z</time>
      </trkpt>
      <trkpt lat="43.5293" lon="5.2689">
        <ele>100.9</ele>
        <time>2021-03-17T13:36:44Z</time>
      </trkpt>
      <trkpt lat="43.52912" lon="5.26873">
        <ele>102</ele>
        <time>2021-03-17T13:37:04Z</time>
      </trkpt>
      <trkpt lat="43.52894" lon="5.26855">
        <ele>104.3</ele>
        <time>2021-03-17T13:37:26Z</time>
      </trkpt>
      <trkpt lat="43.52876" lon="5.26839">
        <ele>106.7</ele>
        <time>2021-03-17T13:37:49Z</time>
      </trkpt>
      <trkpt lat="43.52854" lon="5.26835">
        <ele>109</ele>
        <time>2021-03-17T13:38:11Z</time>
      </trkpt>
      <trkpt lat="43.52832" lon="5.26837">
        <ele>111</ele>
        <time>2021-03-17T13:38:34Z</time>
      </trkpt>
      <trkpt lat="43.52811" lon="5.26845">
        <ele>112.3</ele>
        <time>2021-03-17T13:38:58Z</time>
      </trkpt>
      <trkpt lat="43.52796" lon="5.26867">
        <ele>112.1</ele>
        <time>2021-03-17T13:39:22Z</time>
      </trkpt>
      <trkpt lat="43.5278" lon="5.26885">
        <ele>112.2</ele>
        <time>2021-03-17T13:39:45Z</time>
      </trkpt>
      <trkpt lat="43.52759" lon="5.26893">
        <ele>113.2</ele>
        <time>2021-03-17T13:40:08Z</time>
      </trkpt>
      <trkpt lat="43.52738" lon="5.26881">
        <ele>115.4</ele>
        <time>2021-03-17T13:40:33Z</time>
      </trkpt>
      <trkpt lat="43.52716" lon="5.26879">
        <ele>117</ele>
        <time>2021-03-17T13:41:00Z</time>
      </trkpt>
      <trkpt lat="43.52695" lon="5.2688">
        <ele>118.4</ele>
        <time>2021-03-17T13:41:22Z</time>
      </trkpt>
      <trkpt lat="43.52673" lon="5.2687">
        <ele>120.2</ele>
        <time>2021-03-17T13:41:45Z</time>
      </trkpt>
      <trkpt lat="43.52654" lon="5.26858">
        <ele>121.7</ele>
        <time>2021-03-17T13:42:06Z</time>
      </trkpt>
      <trkpt lat="43.52635" lon="5.26845">
        <ele>122.9</ele>
        <time>2021-03-17T13:42:29Z</time>
      </trkpt>
      <trkpt lat="43.52615" lon="5.26831">
        <ele>123.8</ele>
        <time>2021-03-17T13:42:49Z</time>
      </trkpt>
      <trkpt lat="43.52595" lon="5.2682">
        <ele>124.3</ele>
        <time>2021-03-17T13:43:12Z</time>
      </trkpt>
      <trkpt lat="43.52577" lon="5.26835">
        <ele>125.1</ele>
        <time>2021-03-17T13:43:38Z</time>
      </trkpt>
      <trkpt lat="43.52558" lon="5.26851">
        <ele>125.7</ele>
        <time>2021-03-17T13:44:00Z</time>
      </trkpt>
      <trkpt lat="43.52539" lon="5.26867">
        <ele>126.6</ele>
        <time>2021-03-17T13:44:19Z</time>
      </trkpt>
      <trkpt lat="43.52522" lon="5.26885">
        <ele>127.7</ele>
        <time>2021-03-17T13:44:44Z</time>
      </trkpt>
      <trkpt lat="43.52507" lon="5.26907">
        <ele>129.2</ele>
        <time>2021-03-17T13:45:04Z</time>
      </trkpt>
      <trkpt lat="43.52493" lon="5.2693">
        <ele>130.2</ele>
        <time>2021-03-17T13:45:24Z</time>
      </trkpt>
      <trkpt lat="43.52478" lon="5.26953">
        <ele>130.5</ele>
        <time>2021-03-17T13:45:45Z</time>
      </trkpt>
      <trkpt lat="43.52465" lon="5.26975">
        <ele>131</ele>
        <time>2021-03-17T13:46:07Z</time>
      </trkpt>
      <trkpt lat="43.52451" lon="5.26998">
        <ele>131.7</ele>
        <time>2021-03-17T13:46:28Z</time>
      </trkpt>
      <trkpt lat="43.52436" lon="5.2702">
        <ele>131.4</ele>
        <time>2021-03-17T13:46:48Z</time>
      </trkpt>
      <trkpt lat="43.52422" lon="5.27044">
        <ele>131.9</ele>
        <time>2021-03-17T13:47:09Z</time>
      </trkpt>
      <trkpt lat="43.52406" lon="5.27063">
        <ele>132.2</ele>
        <time>2021-03-17T13:47:32Z</time>
      </trkpt>
      <trkpt lat="43.52391" lon="5.27085">
        <ele>132.7</ele>
        <time>2021-03-17T13:47:57Z</time>
      </trkpt>
      <trkpt lat="43.52378" lon="5.2711">
        <ele>133.3</ele>
        <time>2021-03-17T13:48:18Z</time>
      </trkpt>
      <trkpt lat="43.52364" lon="5.27134">
        <ele>134.1</ele>
        <time>2021-03-17T13:48:47Z</time>
      </trkpt>
      <trkpt lat="43.52351" lon="5.27159">
        <ele>135.3</ele>
        <time>2021-03-17T13:49:09Z</time>
      </trkpt>
      <trkpt lat="43.52338" lon="5.27183">
        <ele>135.7</ele>
        <time>2021-03-17T13:49:30Z</time>
      </trkpt>
      <trkpt lat="43.5232" lon="5.27202">
        <ele>134.8</ele>
        <time>2021-03-17T13:49:51Z</time>
      </trkpt>
      <trkpt lat="43.52307" lon="5.27225">
        <ele>134.3</ele>
        <time>2021-03-17T13:50:11Z</time>
      </trkpt>
      <trkpt lat="43.52294" lon="5.27249">
        <ele>134.5</ele>
        <time>2021-03-17T13:50:34Z</time>
      </trkpt>
      <trkpt lat="43.52282" lon="5.27274">
        <ele>134.9</ele>
        <time>2021-03-17T13:51:02Z</time>
      </trkpt>
      <trkpt lat="43.52271" lon="5.273">
        <ele>135.3</ele>
        <time>2021-03-17T13:51:24Z</time>
      </trkpt>
      <trkpt lat="43.52256" lon="5.27321">
        <ele>135.7</ele>
        <time>2021-03-17T13:52:28Z</time>
      </trkpt>
      <trkpt lat="43.52247" lon="5.27324">
        <ele>135.5</ele>
        <time>2021-03-17T13:54:00Z</time>
      </trkpt>
      <trkpt lat="43.52231" lon="5.27345">
        <ele>135.3</ele>
        <time>2021-03-17T13:54:28Z</time>
      </trkpt>
      <trkpt lat="43.52227" lon="5.27374">
        <ele>136.7</ele>
        <time>2021-03-17T13:54:51Z</time>
      </trkpt>
      <trkpt lat="43.52237" lon="5.27401">
        <ele>139</ele>
        <time>2021-03-17T13:55:14Z</time>
      </trkpt>
      <trkpt lat="43.52244" lon="5.2743">
        <ele>141.8</ele>
        <time>2021-03-17T13:55:35Z</time>
      </trkpt>
      <trkpt lat="43.52248" lon="5.27459">
        <ele>144.9</ele>
        <time>2021-03-17T13:56:07Z</time>
      </trkpt>
      <trkpt lat="43.52261" lon="5.27483">
        <ele>147.8</ele>
        <time>2021-03-17T13:56:34Z</time>
      </trkpt>
      <trkpt lat="43.52269" lon="5.27511">
        <ele>150.3</ele>
        <time>2021-03-17T13:57:01Z</time>
      </trkpt>
      <trkpt lat="43.52284" lon="5.27534">
        <ele>152.1</ele>
        <time>2021-03-17T13:57:28Z</time>
      </trkpt>
      <trkpt lat="43.52287" lon="5.27563">
        <ele>153.8</ele>
        <time>2021-03-17T13:57:57Z</time>
      </trkpt>
      <trkpt lat="43.52284" lon="5.27579">
        <ele>154.6</ele>
        <time>2021-03-17T13:58:40Z</time>
      </trkpt>
      <trkpt lat="43.52296" lon="5.27575">
        <ele>154.7</ele>
        <time>2021-03-17T13:59:02Z</time>
      </trkpt>
      <trkpt lat="43.52293" lon="5.27589">
        <ele>155.7</ele>
        <time>2021-03-17T14:00:28Z</time>
      </trkpt>
      <trkpt lat="43.52285" lon="5.27575">
        <ele>154.4</ele>
        <time>2021-03-17T14:05:03Z</time>
      </trkpt>
      <trkpt lat="43.52299" lon="5.27596">
        <ele>156.9</ele>
        <time>2021-03-17T14:05:30Z</time>
      </trkpt>
      <trkpt lat="43.52307" lon="5.27625">
        <ele>161.4</ele>
        <time>2021-03-17T14:05:57Z</time>
      </trkpt>
      <trkpt lat="43.52308" lon="5.2765">
        <ele>165.2</ele>
        <time>2021-03-17T14:06:24Z</time>
      </trkpt>
      <trkpt lat="43.52289" lon="5.27663">
        <ele>164.6</ele>
        <time>2021-03-17T14:06:48Z</time>
      </trkpt>
      <trkpt lat="43.5228" lon="5.27691">
        <ele>166.9</ele>
        <time>2021-03-17T14:07:10Z</time>
      </trkpt>
      <trkpt lat="43.52271" lon="5.27719">
        <ele>168.1</ele>
        <time>2021-03-17T14:07:31Z</time>
      </trkpt>
      <trkpt lat="43.52261" lon="5.27747">
        <ele>168</ele>
        <time>2021-03-17T14:07:52Z</time>
      </trkpt>
      <trkpt lat="43.52255" lon="5.27775">
        <ele>167.4</ele>
        <time>2021-03-17T14:08:12Z</time>
      </trkpt>
      <trkpt lat="43.52253" lon="5.27806">
        <ele>168.1</ele>
        <time>2021-03-17T14:08:32Z</time>
      </trkpt>
      <trkpt lat="43.52247" lon="5.27834">
        <ele>167.6</ele>
        <time>2021-03-17T14:08:52Z</time>
      </trkpt>
      <trkpt lat="43.52248" lon="5.27863">
        <ele>170.5</ele>
        <time>2021-03-17T14:09:14Z</time>
      </trkpt>
      <trkpt lat="43.52261" lon="5.27846">
        <ele>173.2</ele>
        <time>2021-03-17T14:10:06Z</time>
      </trkpt>
      <trkpt lat="43.52277" lon="5.27834">
        <ele>177.4</ele>
        <time>2021-03-17T14:10:38Z</time>
      </trkpt>
      <trkpt lat="43.52281" lon="5.27807">
        <ele>177.5</ele>
        <time>2021-03-17T14:11:12Z</time>
      </trkpt>
      <trkpt lat="43.52292" lon="5.27832">
        <ele>182.4</ele>
        <time>2021-03-17T14:11:48Z</time>
      </trkpt>
      <trkpt lat="43.52299" lon="5.27858">
        <ele>186.8</ele>
        <time>2021-03-17T14:13:02Z</time>
      </trkpt>
      <trkpt lat="43.52308" lon="5.27885">
        <ele>191.9</ele>
        <time>2021-03-17T14:13:25Z</time>
      </trkpt>
      <trkpt lat="43.52295" lon="5.2791">
        <ele>189.5</ele>
        <time>2021-03-17T14:13:44Z</time>
      </trkpt>
      <trkpt lat="43.52281" lon="5.27932">
        <ele>187.4</ele>
        <time>2021-03-17T14:14:05Z</time>
      </trkpt>
      <trkpt lat="43.52274" lon="5.27956">
        <ele>188</ele>
        <time>2021-03-17T14:14:48Z</time>
      </trkpt>
      <trkpt lat="43.52294" lon="5.27945">
        <ele>192.3</ele>
        <time>2021-03-17T14:15:10Z</time>
      </trkpt>
      <trkpt lat="43.52311" lon="5.27928">
        <ele>196</ele>
        <time>2021-03-17T14:15:30Z</time>
      </trkpt>
      <trkpt lat="43.52329" lon="5.27913">
        <ele>200.4</ele>
        <time>2021-03-17T14:15:50Z</time>
      </trkpt>
      <trkpt lat="43.52347" lon="5.27901">
        <ele>202.9</ele>
        <time>2021-03-17T14:16:35Z</time>
      </trkpt>
      <trkpt lat="43.5236" lon="5.27877">
        <ele>204.8</ele>
        <time>2021-03-17T14:17:01Z</time>
      </trkpt>
      <trkpt lat="43.52365" lon="5.27849">
        <ele>206.3</ele>
        <time>2021-03-17T14:17:24Z</time>
      </trkpt>
      <trkpt lat="43.52361" lon="5.2782">
        <ele>204.1</ele>
        <time>2021-03-17T14:17:53Z</time>
      </trkpt>
      <trkpt lat="43.52369" lon="5.27836">
        <ele>207.6</ele>
        <time>2021-03-17T14:18:28Z</time>
      </trkpt>
      <trkpt lat="43.52382" lon="5.2786">
        <ele>210.1</ele>
        <time>2021-03-17T14:18:56Z</time>
      </trkpt>
      <trkpt lat="43.52398" lon="5.27866">
        <ele>213.1</ele>
        <time>2021-03-17T14:20:42Z</time>
      </trkpt>
      <trkpt lat="43.52392" lon="5.27862">
        <ele>212.3</ele>
        <time>2021-03-17T14:22:52Z</time>
      </trkpt>
      <trkpt lat="43.52386" lon="5.27837">
        <ele>212.5</ele>
        <time>2021-03-17T14:23:29Z</time>
      </trkpt>
      <trkpt lat="43.52385" lon="5.27807">
        <ele>210.1</ele>
        <time>2021-03-17T14:23:52Z</time>
      </trkpt>
      <trkpt lat="43.52392" lon="5.27782">
        <ele>210</ele>
        <time>2021-03-17T14:25:10Z</time>
      </trkpt>
      <trkpt lat="43.52386" lon="5.27803">
        <ele>209.9</ele>
        <time>2021-03-17T14:28:10Z</time>
      </trkpt>
      <trkpt lat="43.52385" lon="5.27831">
        <ele>212.1</ele>
        <time>2021-03-17T14:28:57Z</time>
      </trkpt>
      <trkpt lat="43.5239" lon="5.27859">
        <ele>211.9</ele>
        <time>2021-03-17T14:29:29Z</time>
      </trkpt>
      <trkpt lat="43.52387" lon="5.27886">
        <ele>209.3</ele>
        <time>2021-03-17T14:29:53Z</time>
      </trkpt>
      <trkpt lat="43.52393" lon="5.27906">
        <ele>208.6</ele>
        <time>2021-03-17T14:30:17Z</time>
      </trkpt>
      <trkpt lat="43.5238" lon="5.27928">
        <ele>204.7</ele>
        <time>2021-03-17T14:30:57Z</time>
      </trkpt>
      <trkpt lat="43.5236" lon="5.27941">
        <ele>202.9</ele>
        <time>2021-03-17T14:31:19Z</time>
      </trkpt>
      <trkpt lat="43.52349" lon="5.27965">
        <ele>202.5</ele>
        <time>2021-03-17T14:31:52Z</time>
      </trkpt>
      <trkpt lat="43.52341" lon="5.27988">
        <ele>203.9</ele>
        <time>2021-03-17T14:33:09Z</time>
      </trkpt>
      <trkpt lat="43.52326" lon="5.2801">
        <ele>202.7</ele>
        <time>2021-03-17T14:33:30Z</time>
      </trkpt>
      <trkpt lat="43.52309" lon="5.2803">
        <ele>198.2</ele>
        <time>2021-03-17T14:33:48Z</time>
      </trkpt>
      <trkpt lat="43.52292" lon="5.28047">
        <ele>197.3</ele>
        <time>2021-03-17T14:34:17Z</time>
      </trkpt>
      <trkpt lat="43.52277" lon="5.28069">
        <ele>199.3</ele>
        <time>2021-03-17T14:34:33Z</time>
      </trkpt>
      <trkpt lat="43.52265" lon="5.28094">
        <ele>201.7</ele>
        <time>2021-03-17T14:35:02Z</time>
      </trkpt>
      <trkpt lat="43.52256" lon="5.28122">
        <ele>200.8</ele>
        <time>2021-03-17T14:35:21Z</time>
      </trkpt>
      <trkpt lat="43.52244" lon="5.28146">
        <ele>198.1</ele>
        <time>2021-03-17T14:35:50Z</time>
      </trkpt>
      <trkpt lat="43.52239" lon="5.28173">
        <ele>193.6</ele>
        <time>2021-03-17T14:36:15Z</time>
      </trkpt>
      <trkpt lat="43.52239" lon="5.28203">
        <ele>186.9</ele>
        <time>2021-03-17T14:36:40Z</time>
      </trkpt>
      <trkpt lat="43.52234" lon="5.28233">
        <ele>179.8</ele>
        <time>2021-03-17T14:37:01Z</time>
      </trkpt>
      <trkpt lat="43.52217" lon="5.28229">
        <ele>177.8</ele>
        <time>2021-03-17T14:38:03Z</time>
      </trkpt>
      <trkpt lat="43.52205" lon="5.28203">
        <ele>180.2</ele>
        <time>2021-03-17T14:38:24Z</time>
      </trkpt>
      <trkpt lat="43.52197" lon="5.28176">
        <ele>182.5</ele>
        <time>2021-03-17T14:38:46Z</time>
      </trkpt>
      <trkpt lat="43.52187" lon="5.28149">
        <ele>181</ele>
        <time>2021-03-17T14:39:08Z</time>
      </trkpt>
      <trkpt lat="43.52177" lon="5.28128">
        <ele>177.2</ele>
        <time>2021-03-17T14:39:52Z</time>
      </trkpt>
      <trkpt lat="43.52176" lon="5.28156">
        <ele>178</ele>
        <time>2021-03-17T14:40:16Z</time>
      </trkpt>
      <trkpt lat="43.52173" lon="5.28186">
        <ele>175.6</ele>
        <time>2021-03-17T14:40:40Z</time>
      </trkpt>
      <trkpt lat="43.52174" lon="5.28216">
        <ele>172.6</ele>
        <time>2021-03-17T14:41:01Z</time>
      </trkpt>
      <trkpt lat="43.52174" lon="5.28246">
        <ele>169.2</ele>
        <time>2021-03-17T14:41:22Z</time>
      </trkpt>
      <trkpt lat="43.52163" lon="5.28257">
        <ele>166.4</ele>
        <time>2021-03-17T14:41:44Z</time>
      </trkpt>
      <trkpt lat="43.52161" lon="5.28226">
        <ele>168.5</ele>
        <time>2021-03-17T14:42:03Z</time>
      </trkpt>
      <trkpt lat="43.52155" lon="5.28197">
        <ele>169.6</ele>
        <time>2021-03-17T14:42:23Z</time>
      </trkpt>
      <trkpt lat="43.52151" lon="5.28166">
        <ele>170.8</ele>
        <time>2021-03-17T14:42:41Z</time>
      </trkpt>
      <trkpt lat="43.52153" lon="5.28136">
        <ele>169.7</ele>
        <time>2021-03-17T14:42:58Z</time>
      </trkpt>
      <trkpt lat="43.5216" lon="5.28109">
        <ele>170.5</ele>
        <time>2021-03-17T14:43:16Z</time>
      </trkpt>
      <trkpt lat="43.52168" lon="5.28082">
        <ele>171.6</ele>
        <time>2021-03-17T14:43:33Z</time>
      </trkpt>
      <trkpt lat="43.52184" lon="5.2806">
        <ele>174.6</ele>
        <time>2021-03-17T14:43:51Z</time>
      </trkpt>
      <trkpt lat="43.52195" lon="5.28033">
        <ele>174.8</ele>
        <time>2021-03-17T14:44:09Z</time>
      </trkpt>
      <trkpt lat="43.52204" lon="5.28006">
        <ele>173.4</ele>
        <time>2021-03-17T14:44:27Z</time>
      </trkpt>
      <trkpt lat="43.52206" lon="5.27977">
        <ele>170.6</ele>
        <time>2021-03-17T14:44:53Z</time>
      </trkpt>
      <trkpt lat="43.52213" lon="5.27949">
        <ele>169.3</ele>
        <time>2021-03-17T14:45:12Z</time>
      </trkpt>
      <trkpt lat="43.52219" lon="5.27919">
        <ele>167.3</ele>
        <time>2021-03-17T14:45:34Z</time>
      </trkpt>
      <trkpt lat="43.52216" lon="5.27891">
        <ele>164.9</ele>
        <time>2021-03-17T14:46:07Z</time>
      </trkpt>
      <trkpt lat="43.52197" lon="5.27877">
        <ele>160</ele>
        <time>2021-03-17T14:46:35Z</time>
      </trkpt>
      <trkpt lat="43.5218" lon="5.27861">
        <ele>156.2</ele>
        <time>2021-03-17T14:47:32Z</time>
      </trkpt>
      <trkpt lat="43.52163" lon="5.27842">
        <ele>153.6</ele>
        <time>2021-03-17T14:47:54Z</time>
      </trkpt>
      <trkpt lat="43.52145" lon="5.27825">
        <ele>153.6</ele>
        <time>2021-03-17T14:48:14Z</time>
      </trkpt>
      <trkpt lat="43.52127" lon="5.27808">
        <ele>153.8</ele>
        <time>2021-03-17T14:48:37Z</time>
      </trkpt>
      <trkpt lat="43.52109" lon="5.27791">
        <ele>154</ele>
        <time>2021-03-17T14:49:01Z</time>
      </trkpt>
      <trkpt lat="43.52092" lon="5.27774">
        <ele>154.2</ele>
        <time>2021-03-17T14:50:01Z</time>
      </trkpt>
      <trkpt lat="43.52076" lon="5.27757">
        <ele>154.9</ele>
        <time>2021-03-17T14:50:45Z</time>
      </trkpt>
      <trkpt lat="43.52057" lon="5.27741">
        <ele>155.3</ele>
        <time>2021-03-17T14:51:15Z</time>
      </trkpt>
      <trkpt lat="43.52039" lon="5.27725">
        <ele>155.2</ele>
        <time>2021-03-17T14:51:34Z</time>
      </trkpt>
      <trkpt lat="43.52031" lon="5.27701">
        <ele>154.5</ele>
        <time>2021-03-17T14:51:52Z</time>
      </trkpt>
      <trkpt lat="43.52042" lon="5.27674">
        <ele>153.3</ele>
        <time>2021-03-17T14:52:13Z</time>
      </trkpt>
      <trkpt lat="43.52053" lon="5.27648">
        <ele>151.2</ele>
        <time>2021-03-17T14:52:32Z</time>
      </trkpt>
      <trkpt lat="43.52065" lon="5.27624">
        <ele>148.6</ele>
        <time>2021-03-17T14:52:54Z</time>
      </trkpt>
      <trkpt lat="43.52074" lon="5.27597">
        <ele>145.8</ele>
        <time>2021-03-17T14:53:13Z</time>
      </trkpt>
      <trkpt lat="43.52086" lon="5.2757">
        <ele>143.4</ele>
        <time>2021-03-17T14:53:30Z</time>
      </trkpt>
      <trkpt lat="43.52099" lon="5.27546">
        <ele>142.6</ele>
        <time>2021-03-17T14:53:49Z</time>
      </trkpt>
      <trkpt lat="43.52108" lon="5.27519">
        <ele>141.2</ele>
        <time>2021-03-17T14:54:07Z</time>
      </trkpt>
      <trkpt lat="43.52115" lon="5.2749">
        <ele>139.5</ele>
        <time>2021-03-17T14:54:25Z</time>
      </trkpt>
      <trkpt lat="43.52124" lon="5.27462">
        <ele>138</ele>
        <time>2021-03-17T14:54:42Z</time>
      </trkpt>
      <trkpt lat="43.52137" lon="5.27437">
        <ele>136.2</ele>
        <time>2021-03-17T14:55:01Z</time>
      </trkpt>
      <trkpt lat="43.5215" lon="5.27413">
        <ele>134.2</ele>
        <time>2021-03-17T14:55:19Z</time>
      </trkpt>
      <trkpt lat="43.52166" lon="5.27392">
        <ele>132.8</ele>
        <time>2021-03-17T14:55:37Z</time>
      </trkpt>
      <trkpt lat="43.52173" lon="5.27363">
        <ele>131.9</ele>
        <time>2021-03-17T14:55:57Z</time>
      </trkpt>
      <trkpt lat="43.52177" lon="5.27332">
        <ele>130.7</ele>
        <time>2021-03-17T14:56:17Z</time>
      </trkpt>
      <trkpt lat="43.52186" lon="5.27304">
        <ele>130.1</ele>
        <time>2021-03-17T14:56:35Z</time>
      </trkpt>
      <trkpt lat="43.52196" lon="5.27277">
        <ele>129.9</ele>
        <time>2021-03-17T14:56:52Z</time>
      </trkpt>
      <trkpt lat="43.52209" lon="5.27251">
        <ele>130.1</ele>
        <time>2021-03-17T14:57:10Z</time>
      </trkpt>
      <trkpt lat="43.52221" lon="5.27225">
        <ele>130.1</ele>
        <time>2021-03-17T14:57:28Z</time>
      </trkpt>
      <trkpt lat="43.52234" lon="5.272">
        <ele>129.5</ele>
        <time>2021-03-17T14:57:45Z</time>
      </trkpt>
      <trkpt lat="43.52247" lon="5.27176">
        <ele>128.6</ele>
        <time>2021-03-17T14:58:03Z</time>
      </trkpt>
      <trkpt lat="43.52257" lon="5.27148">
        <ele>127.1</ele>
        <time>2021-03-17T14:58:20Z</time>
      </trkpt>
      <trkpt lat="43.52269" lon="5.27128">
        <ele>126.9</ele>
        <time>2021-03-17T15:00:01Z</time>
      </trkpt>
      <trkpt lat="43.52285" lon="5.27107">
        <ele>127.2</ele>
        <time>2021-03-17T15:00:58Z</time>
      </trkpt>
      <trkpt lat="43.523" lon="5.27084">
        <ele>127.6</ele>
        <time>2021-03-17T15:01:17Z</time>
      </trkpt>
      <trkpt lat="43.52315" lon="5.27062">
        <ele>128</ele>
        <time>2021-03-17T15:01:37Z</time>
      </trkpt>
      <trkpt lat="43.52333" lon="5.27045">
        <ele>128.3</ele>
        <time>2021-03-17T15:01:56Z</time>
      </trkpt>
      <trkpt lat="43.52352" lon="5.27029">
        <ele>127.9</ele>
        <time>2021-03-17T15:02:16Z</time>
      </trkpt>
      <trkpt lat="43.52365" lon="5.27007">
        <ele>127.1</ele>
        <time>2021-03-17T15:04:06Z</time>
      </trkpt>
      <trkpt lat="43.5238" lon="5.26983">
        <ele>127.1</ele>
        <time>2021-03-17T15:04:29Z</time>
      </trkpt>
      <trkpt lat="43.52398" lon="5.26966">
        <ele>127.5</ele>
        <time>2021-03-17T15:04:47Z</time>
      </trkpt>
      <trkpt lat="43.52419" lon="5.26964">
        <ele>128.9</ele>
        <time>2021-03-17T15:05:05Z</time>
      </trkpt>
      <trkpt lat="43.52441" lon="5.26959">
        <ele>129.4</ele>
        <time>2021-03-17T15:05:24Z</time>
      </trkpt>
      <trkpt lat="43.52457" lon="5.26941">
        <ele>129.1</ele>
        <time>2021-03-17T15:05:50Z</time>
      </trkpt>
      <trkpt lat="43.52471" lon="5.26918">
        <ele>128.7</ele>
        <time>2021-03-17T15:06:09Z</time>
      </trkpt>
      <trkpt lat="43.52487" lon="5.26897">
        <ele>128.2</ele>
        <time>2021-03-17T15:06:27Z</time>
      </trkpt>
      <trkpt lat="43.52502" lon="5.26874">
        <ele>127.9</ele>
        <time>2021-03-17T15:06:46Z</time>
      </trkpt>
      <trkpt lat="43.52517" lon="5.26852">
        <ele>126.6</ele>
        <time>2021-03-17T15:07:05Z</time>
      </trkpt>
      <trkpt lat="43.52527" lon="5.26825">
        <ele>125.2</ele>
        <time>2021-03-17T15:07:26Z</time>
      </trkpt>
      <trkpt lat="43.52532" lon="5.26796">
        <ele>123.3</ele>
        <time>2021-03-17T15:07:43Z</time>
      </trkpt>
      <trkpt lat="43.52543" lon="5.26769">
        <ele>122.1</ele>
        <time>2021-03-17T15:08:04Z</time>
      </trkpt>
      <trkpt lat="43.52556" lon="5.26746">
        <ele>121.6</ele>
        <time>2021-03-17T15:08:25Z</time>
      </trkpt>
      <trkpt lat="43.52573" lon="5.26724">
        <ele>122.1</ele>
        <time>2021-03-17T15:08:44Z</time>
      </trkpt>
      <trkpt lat="43.52592" lon="5.2671">
        <ele>122.7</ele>
        <time>2021-03-17T15:09:04Z</time>
      </trkpt>
      <trkpt lat="43.52614" lon="5.26706">
        <ele>123.2</ele>
        <time>2021-03-17T15:09:24Z</time>
      </trkpt>
      <trkpt lat="43.52631" lon="5.26689">
        <ele>123.9</ele>
        <time>2021-03-17T15:09:46Z</time>
      </trkpt>
      <trkpt lat="43.52643" lon="5.26664">
        <ele>124.9</ele>
        <time>2021-03-17T15:10:05Z</time>
      </trkpt>
      <trkpt lat="43.52659" lon="5.26644">
        <ele>126.3</ele>
        <time>2021-03-17T15:10:26Z</time>
      </trkpt>
      <trkpt lat="43.52671" lon="5.2662">
        <ele>127.4</ele>
        <time>2021-03-17T15:10:47Z</time>
      </trkpt>
      <trkpt lat="43.5268" lon="5.26592">
        <ele>128.1</ele>
        <time>2021-03-17T15:11:08Z</time>
      </trkpt>
      <trkpt lat="43.52686" lon="5.26562">
        <ele>127.9</ele>
        <time>2021-03-17T15:11:27Z</time>
      </trkpt>
      <trkpt lat="43.52693" lon="5.26534">
        <ele>127.7</ele>
        <time>2021-03-17T15:11:44Z</time>
      </trkpt>
      <trkpt lat="43.52701" lon="5.26506">
        <ele>128.3</ele>
        <time>2021-03-17T15:12:02Z</time>
      </trkpt>
      <trkpt lat="43.52717" lon="5.26485">
        <ele>128.4</ele>
        <time>2021-03-17T15:12:20Z</time>
      </trkpt>
      <trkpt lat="43.52736" lon="5.26467">
        <ele>128.8</ele>
        <time>2021-03-17T15:12:37Z</time>
      </trkpt>
      <trkpt lat="43.52754" lon="5.26459">
        <ele>129.7</ele>
        <time>2021-03-17T15:13:27Z</time>
      </trkpt>
      <trkpt lat="43.52775" lon="5.26456">
        <ele>130.3</ele>
        <time>2021-03-17T15:13:53Z</time>
      </trkpt>
      <trkpt lat="43.52796" lon="5.26449">
        <ele>130.7</ele>
        <time>2021-03-17T15:14:13Z</time>
      </trkpt>
      <trkpt lat="43.52818" lon="5.2644">
        <ele>131.5</ele>
        <time>2021-03-17T15:14:33Z</time>
      </trkpt>
      <trkpt lat="43.52837" lon="5.26426">
        <ele>132</ele>
        <time>2021-03-17T15:14:53Z</time>
      </trkpt>
      <trkpt lat="43.52858" lon="5.26416">
        <ele>131</ele>
        <time>2021-03-17T15:15:12Z</time>
      </trkpt>
      <trkpt lat="43.52878" lon="5.26406">
        <ele>128.9</ele>
        <time>2021-03-17T15:15:31Z</time>
      </trkpt>
      <trkpt lat="43.52898" lon="5.26392">
        <ele>126.7</ele>
        <time>2021-03-17T15:15:51Z</time>
      </trkpt>
      <trkpt lat="43.52919" lon="5.26384">
        <ele>125.5</ele>
        <time>2021-03-17T15:16:10Z</time>
      </trkpt>
      <trkpt lat="43.52941" lon="5.26382">
        <ele>125.3</ele>
        <time>2021-03-17T15:16:29Z</time>
      </trkpt>
      <trkpt lat="43.52962" lon="5.26384">
        <ele>125.5</ele>
        <time>2021-03-17T15:16:52Z</time>
      </trkpt>
      <trkpt lat="43.52985" lon="5.26388">
        <ele>125.9</ele>
        <time>2021-03-17T15:17:12Z</time>
      </trkpt>
      <trkpt lat="43.53007" lon="5.2639">
        <ele>125.9</ele>
        <time>2021-03-17T15:17:32Z</time>
      </trkpt>
      <trkpt lat="43.53029" lon="5.26385">
        <ele>124.9</ele>
        <time>2021-03-17T15:17:52Z</time>
      </trkpt>
      <trkpt lat="43.53051" lon="5.26379">
        <ele>124</ele>
        <time>2021-03-17T15:18:12Z</time>
      </trkpt>
      <trkpt lat="43.53073" lon="5.26375">
        <ele>123.2</ele>
        <time>2021-03-17T15:18:32Z</time>
      </trkpt>
      <trkpt lat="43.53095" lon="5.26374">
        <ele>122.2</ele>
        <time>2021-03-17T15:18:52Z</time>
      </trkpt>
      <trkpt lat="43.53116" lon="5.26382">
        <ele>121.2</ele>
        <time>2021-03-17T15:19:12Z</time>
      </trkpt>
      <trkpt lat="43.53136" lon="5.26394">
        <ele>120.6</ele>
        <time>2021-03-17T15:19:32Z</time>
      </trkpt>
      <trkpt lat="43.53158" lon="5.2639">
        <ele>119</ele>
        <time>2021-03-17T15:19:55Z</time>
      </trkpt>
      <trkpt lat="43.5318" lon="5.26391">
        <ele>117.9</ele>
        <time>2021-03-17T15:20:16Z</time>
      </trkpt>
      <trkpt lat="43.53189" lon="5.26415">
        <ele>118.9</ele>
        <time>2021-03-17T15:20:36Z</time>
      </trkpt>
      <trkpt lat="43.53188" lon="5.26444">
        <ele>117</ele>
        <time>2021-03-17T15:20:55Z</time>
      </trkpt>
      <trkpt lat="43.532" lon="5.2647">
        <ele>114.9</ele>
        <time>2021-03-17T15:21:15Z</time>
      </trkpt>
      <trkpt lat="43.53221" lon="5.26475">
        <ele>114.3</ele>
        <time>2021-03-17T15:21:36Z</time>
      </trkpt>
      <trkpt lat="43.53241" lon="5.26483">
        <ele>113.7</ele>
        <time>2021-03-17T15:21:53Z</time>
      </trkpt>
      <trkpt lat="43.53261" lon="5.26497">
        <ele>112.5</ele>
        <time>2021-03-17T15:22:11Z</time>
      </trkpt>
      <trkpt lat="43.5328" lon="5.26513">
        <ele>110.2</ele>
        <time>2021-03-17T15:22:32Z</time>
      </trkpt>
      <trkpt lat="43.5329" lon="5.26537">
        <ele>107.7</ele>
        <time>2021-03-17T15:22:49Z</time>
      </trkpt>
      <trkpt lat="43.53282" lon="5.26565">
        <ele>104.9</ele>
        <time>2021-03-17T15:23:06Z</time>
      </trkpt>
      <trkpt lat="43.53277" lon="5.26595">
        <ele>102.2</ele>
        <time>2021-03-17T15:23:24Z</time>
      </trkpt>
      <trkpt lat="43.53279" lon="5.26624">
        <ele>100.1</ele>
        <time>2021-03-17T15:23:42Z</time>
      </trkpt>
      <trkpt lat="43.53281" lon="5.26654">
        <ele>97.9</ele>
        <time>2021-03-17T15:24:10Z</time>
      </trkpt>
      <trkpt lat="43.53288" lon="5.26683">
        <ele>96.6</ele>
        <time>2021-03-17T15:24:30Z</time>
      </trkpt>
      <trkpt lat="43.53296" lon="5.26711">
        <ele>95.8</ele>
        <time>2021-03-17T15:24:50Z</time>
      </trkpt>
      <trkpt lat="43.53306" lon="5.26739">
        <ele>94.7</ele>
        <time>2021-03-17T15:25:08Z</time>
      </trkpt>
      <trkpt lat="43.53314" lon="5.26768">
        <ele>93.4</ele>
        <time>2021-03-17T15:25:26Z</time>
      </trkpt>
      <trkpt lat="43.53322" lon="5.26796">
        <ele>92.1</ele>
        <time>2021-03-17T15:25:42Z</time>
      </trkpt>
      <trkpt lat="43.53334" lon="5.26822">
        <ele>90.3</ele>
        <time>2021-03-17T15:25:59Z</time>
      </trkpt>
      <trkpt lat="43.53341" lon="5.26851">
        <ele>87.4</ele>
        <time>2021-03-17T15:26:18Z</time>
      </trkpt>
      <trkpt lat="43.53347" lon="5.2688">
        <ele>84.8</ele>
        <time>2021-03-17T15:26:40Z</time>
      </trkpt>
      <trkpt lat="43.53342" lon="5.26908">
        <ele>84.2</ele>
        <time>2021-03-17T15:26:57Z</time>
      </trkpt>
      <trkpt lat="43.53341" lon="5.26938">
        <ele>82.5</ele>
        <time>2021-03-17T15:27:15Z</time>
      </trkpt>
      <trkpt lat="43.53344" lon="5.26968">
        <ele>80.3</ele>
        <time>2021-03-17T15:27:32Z</time>
      </trkpt>
      <trkpt lat="43.53351" lon="5.26997">
        <ele>78.3</ele>
        <time>2021-03-17T15:27:47Z</time>
      </trkpt>
      <trkpt lat="43.53358" lon="5.27026">
        <ele>78.5</ele>
        <time>2021-03-17T15:28:04Z</time>
      </trkpt>
      <trkpt lat="43.53372" lon="5.27048">
        <ele>77.8</ele>
        <time>2021-03-17T15:28:26Z</time>
      </trkpt>
      <trkpt lat="43.53379" lon="5.27031">
        <ele>77.1</ele>
        <time>2021-03-17T15:31:22Z</time>
      </trkpt>
      <trkpt lat="43.53394" lon="5.27014">
        <ele>76</ele>
        <time>2021-03-17T15:31:53Z</time>
      </trkpt>
      <trkpt lat="43.53389" lon="5.27001">
        <ele>76.3</ele>
        <time>2021-03-17T15:33:55Z</time>
      </trkpt>
      <trkpt lat="43.53391" lon="5.26978">
        <ele>76.2</ele>
        <time>2021-03-17T15:34:06Z</time>
      </trkpt>
      <trkpt lat="43.53383" lon="5.27006">
        <ele>76.7</ele>
        <time>2021-03-17T15:34:14Z</time>
      </trkpt>
      <trkpt lat="43.53379" lon="5.27036">
        <ele>77.2</ele>
        <time>2021-03-17T15:34:21Z</time>
      </trkpt>
      <trkpt lat="43.53387" lon="5.27064">
        <ele>76.5</ele>
        <time>2021-03-17T15:34:30Z</time>
      </trkpt>
      <trkpt lat="43.53402" lon="5.27042">
        <ele>75.2</ele>
        <time>2021-03-17T15:35:06Z</time>
      </trkpt>
      <trkpt lat="43.53419" lon="5.27009">
        <ele>74.6</ele>
        <time>2021-03-17T15:35:10Z</time>
      </trkpt>
      <trkpt lat="43.53434" lon="5.2698">
        <ele>73.3</ele>
        <time>2021-03-17T15:35:13Z</time>
      </trkpt>
      <trkpt lat="43.53449" lon="5.26948">
        <ele>71.4</ele>
        <time>2021-03-17T15:35:16Z</time>
      </trkpt>
      <trkpt lat="43.53464" lon="5.26914">
        <ele>69.7</ele>
        <time>2021-03-17T15:35:19Z</time>
      </trkpt>
      <trkpt lat="43.53478" lon="5.26882">
        <ele>69.8</ele>
        <time>2021-03-17T15:35:22Z</time>
      </trkpt>
      <trkpt lat="43.53486" lon="5.26861">
        <ele>69.9</ele>
        <time>2021-03-17T15:35:24Z</time>
      </trkpt>
    </trkseg>
  </trk>
</gpx>